sensor_id;sensor_type;location;lat;lon;timestamp;temperature;humidity
9305;DHT22;4690;52.422;13.486;2023-03-14T00:05:08;12.60;99.90
9305;DHT22;4690;52.422;13.486;2023-03-14T00:07:39;12.60;99.90
9305;DHT22;4690;52.422;13.486;2023-03-14T00:10:07;12.60;99.90
9305;DHT22;4690;52.422;13.486;2023-03-14T00:12:35;12.50;99.90
9305;DHT22;4690;52.422;13.486;2023-03-14T00:15:01;12.50;99.90
9305;DHT22;4690;52.422;13.486;2023-03-14T00:17:29;12.40;99.90
9305;DHT22;4690;52.422;13.486;2023-03-14T00:19:56;12.40;99.90
9305;DHT22;4690;52.422;13.486;2023-03-14T00:22:21;12.30;99.90
9305;DHT22;4690;52.422;13.486;2023-03-14T00:24:48;12.30;99.90
9305;DHT22;4690;52.422;13.486;2023-03-14T00:27:14;12.20;99.90
9305;DHT22;4690;52.422;13.486;2023-03-14T00:29:39;12.20;99.90
9305;DHT22;4690;52.422;13.486;2023-03-14T00:32:05;12.20;99.90
9305;DHT22;4690;52.422;13.486;2023-03-14T00:34:32;12.20;99.90
9305;DHT22;4690;52.422;13.486;2023-03-14T00:36:58;12.10;99.90
9305;DHT22;4690;52.422;13.486;2023-03-14T00:39:24;12.20;99.90
9305;DHT22;4690;52.422;13.486;2023-03-14T00:41:50;12.20;99.90
9305;DHT22;4690;52.422;13.486;2023-03-14T00:44:15;12.10;99.90
9305;DHT22;4690;52.422;13.486;2023-03-14T00:46:41;12.00;99.90
9305;DHT22;4690;52.422;13.486;2023-03-14T00:49:07;12.00;99.90
9305;DHT22;4690;52.422;13.486;2023-03-14T00:51:32;11.90;99.90
9305;DHT22;4690;52.422;13.486;2023-03-14T00:54:00;11.90;99.90
9305;DHT22;4690;52.422;13.486;2023-03-14T00:56:25;11.90;99.90
9305;DHT22;4690;52.422;13.486;2023-03-14T00:58:55;11.90;99.90
9305;DHT22;4690;52.422;13.486;2023-03-14T01:01:21;11.90;99.90
9305;DHT22;4690;52.422;13.486;2023-03-14T01:03:49;11.90;99.90
9305;DHT22;4690;52.422;13.486;2023-03-14T01:06:20;11.90;99.90
9305;DHT22;4690;52.422;13.486;2023-03-14T01:08:48;11.90;99.90
9305;DHT22;4690;52.422;13.486;2023-03-14T01:11:17;11.80;99.90
9305;DHT22;4690;52.422;13.486;2023-03-14T01:13:45;11.80;99.90
9305;DHT22;4690;52.422;13.486;2023-03-14T01:16:12;11.80;99.90
9305;DHT22;4690;52.422;13.486;2023-03-14T01:18:40;11.80;99.90
9305;DHT22;4690;52.422;13.486;2023-03-14T01:21:22;11.80;99.90
9305;DHT22;4690;52.422;13.486;2023-03-14T01:23:50;11.80;99.90
9305;DHT22;4690;52.422;13.486;2023-03-14T01:26:19;11.80;99.90
9305;DHT22;4690;52.422;13.486;2023-03-14T01:28:49;11.80;99.90
9305;DHT22;4690;52.422;13.486;2023-03-14T01:31:16;11.80;99.90
9305;DHT22;4690;52.422;13.486;2023-03-14T01:33:43;11.90;99.90
9305;DHT22;4690;52.422;13.486;2023-03-14T01:36:10;12.00;99.90
9305;DHT22;4690;52.422;13.486;2023-03-14T01:38:38;12.00;99.90
9305;DHT22;4690;52.422;13.486;2023-03-14T01:41:06;12.00;99.90
9305;DHT22;4690;52.422;13.486;2023-03-14T01:43:34;12.00;99.90
9305;DHT22;4690;52.422;13.486;2023-03-14T01:48:45;12.00;99.90
9305;DHT22;4690;52.422;13.486;2023-03-14T01:54:37;11.90;99.90
9305;DHT22;4690;52.422;13.486;2023-03-14T01:57:32;11.90;99.90
9305;DHT22;4690;52.422;13.486;2023-03-14T02:00:08;11.80;99.90
9305;DHT22;4690;52.422;13.486;2023-03-14T02:02:51;11.80;99.90
9305;DHT22;4690;52.422;13.486;2023-03-14T02:05:26;11.80;99.90
9305;DHT22;4690;52.422;13.486;2023-03-14T02:07:59;11.80;99.90
9305;DHT22;4690;52.422;13.486;2023-03-14T02:10:30;11.70;99.90
9305;DHT22;4690;52.422;13.486;2023-03-14T02:13:03;11.70;99.90
9305;DHT22;4690;52.422;13.486;2023-03-14T02:15:30;11.70;99.90
9305;DHT22;4690;52.422;13.486;2023-03-14T02:17:57;11.60;99.90
9305;DHT22;4690;52.422;13.486;2023-03-14T02:22:54;11.70;99.90
9305;DHT22;4690;52.422;13.486;2023-03-14T02:25:39;11.70;99.90
9305;DHT22;4690;52.422;13.486;2023-03-14T02:28:16;11.60;99.90
9305;DHT22;4690;52.422;13.486;2023-03-14T02:30:42;11.60;99.90
9305;DHT22;4690;52.422;13.486;2023-03-14T02:33:17;11.70;99.90
9305;DHT22;4690;52.422;13.486;2023-03-14T02:35:50;11.60;99.90
9305;DHT22;4690;52.422;13.486;2023-03-14T02:38:42;11.70;99.90
9305;DHT22;4690;52.422;13.486;2023-03-14T02:41:14;11.70;99.90
9305;DHT22;4690;52.422;13.486;2023-03-14T02:43:40;11.80;99.90
9305;DHT22;4690;52.422;13.486;2023-03-14T02:46:10;11.70;99.90
9305;DHT22;4690;52.422;13.486;2023-03-14T02:49:04;11.80;99.90
9305;DHT22;4690;52.422;13.486;2023-03-14T02:51:35;11.70;99.90
9305;DHT22;4690;52.422;13.486;2023-03-14T02:54:02;11.70;99.90
9305;DHT22;4690;52.422;13.486;2023-03-14T02:56:29;11.70;99.90
9305;DHT22;4690;52.422;13.486;2023-03-14T02:58:54;11.70;99.90
9305;DHT22;4690;52.422;13.486;2023-03-14T03:01:20;11.70;99.90
9305;DHT22;4690;52.422;13.486;2023-03-14T03:03:46;11.70;99.90
9305;DHT22;4690;52.422;13.486;2023-03-14T03:06:12;11.70;99.90
9305;DHT22;4690;52.422;13.486;2023-03-14T03:08:37;11.70;99.90
9305;DHT22;4690;52.422;13.486;2023-03-14T03:11:04;11.70;99.90
9305;DHT22;4690;52.422;13.486;2023-03-14T03:13:30;11.70;99.90
9305;DHT22;4690;52.422;13.486;2023-03-14T03:15:56;11.70;99.90
9305;DHT22;4690;52.422;13.486;2023-03-14T03:18:22;11.60;99.90
9305;DHT22;4690;52.422;13.486;2023-03-14T03:20:48;11.60;99.90
9305;DHT22;4690;52.422;13.486;2023-03-14T03:23:13;11.70;99.90
9305;DHT22;4690;52.422;13.486;2023-03-14T03:25:39;11.60;99.90
9305;DHT22;4690;52.422;13.486;2023-03-14T03:28:05;11.60;99.90
9305;DHT22;4690;52.422;13.486;2023-03-14T03:30:38;11.60;99.90
9305;DHT22;4690;52.422;13.486;2023-03-14T03:33:04;11.60;99.90
9305;DHT22;4690;52.422;13.486;2023-03-14T03:35:30;11.60;99.90
9305;DHT22;4690;52.422;13.486;2023-03-14T03:37:56;11.60;99.90
9305;DHT22;4690;52.422;13.486;2023-03-14T03:40:21;11.60;99.90
9305;DHT22;4690;52.422;13.486;2023-03-14T03:42:47;11.60;99.90
9305;DHT22;4690;52.422;13.486;2023-03-14T03:45:13;11.60;99.90
9305;DHT22;4690;52.422;13.486;2023-03-14T03:47:39;11.60;99.90
9305;DHT22;4690;52.422;13.486;2023-03-14T03:50:05;11.50;99.90
9305;DHT22;4690;52.422;13.486;2023-03-14T03:52:31;11.50;99.90
9305;DHT22;4690;52.422;13.486;2023-03-14T03:54:57;11.50;99.90
9305;DHT22;4690;52.422;13.486;2023-03-14T03:57:23;11.50;99.90
9305;DHT22;4690;52.422;13.486;2023-03-14T03:59:48;11.50;99.90
9305;DHT22;4690;52.422;13.486;2023-03-14T04:02:14;11.50;99.90
9305;DHT22;4690;52.422;13.486;2023-03-14T04:04:40;11.40;99.90
9305;DHT22;4690;52.422;13.486;2023-03-14T04:07:06;11.40;99.90
9305;DHT22;4690;52.422;13.486;2023-03-14T04:09:32;11.40;99.90
9305;DHT22;4690;52.422;13.486;2023-03-14T04:11:57;11.40;99.90
9305;DHT22;4690;52.422;13.486;2023-03-14T04:14:23;11.40;99.90
9305;DHT22;4690;52.422;13.486;2023-03-14T04:16:49;11.30;99.90
9305;DHT22;4690;52.422;13.486;2023-03-14T04:19:15;11.30;99.90
9305;DHT22;4690;52.422;13.486;2023-03-14T04:21:40;11.30;99.90
9305;DHT22;4690;52.422;13.486;2023-03-14T04:24:10;11.30;99.90
9305;DHT22;4690;52.422;13.486;2023-03-14T04:26:36;11.30;99.90
9305;DHT22;4690;52.422;13.486;2023-03-14T04:29:02;11.30;99.90
9305;DHT22;4690;52.422;13.486;2023-03-14T04:31:28;11.20;99.90
9305;DHT22;4690;52.422;13.486;2023-03-14T04:33:53;11.20;99.90
9305;DHT22;4690;52.422;13.486;2023-03-14T04:36:19;11.20;99.90
9305;DHT22;4690;52.422;13.486;2023-03-14T04:38:45;11.20;99.90
9305;DHT22;4690;52.422;13.486;2023-03-14T04:41:11;11.10;99.90
9305;DHT22;4690;52.422;13.486;2023-03-14T04:43:36;11.20;99.90
9305;DHT22;4690;52.422;13.486;2023-03-14T04:46:03;11.20;99.90
9305;DHT22;4690;52.422;13.486;2023-03-14T04:48:29;11.20;99.90
9305;DHT22;4690;52.422;13.486;2023-03-14T04:50:55;11.10;99.90
9305;DHT22;4690;52.422;13.486;2023-03-14T04:53:21;11.20;99.90
9305;DHT22;4690;52.422;13.486;2023-03-14T04:55:54;11.20;99.90
9305;DHT22;4690;52.422;13.486;2023-03-14T04:58:22;11.20;99.90
9305;DHT22;4690;52.422;13.486;2023-03-14T05:00:49;11.10;99.90
9305;DHT22;4690;52.422;13.486;2023-03-14T05:03:16;11.10;99.90
9305;DHT22;4690;52.422;13.486;2023-03-14T05:05:43;11.10;99.90
9305;DHT22;4690;52.422;13.486;2023-03-14T05:08:09;11.10;99.90
9305;DHT22;4690;52.422;13.486;2023-03-14T05:10:35;11.10;99.90
9305;DHT22;4690;52.422;13.486;2023-03-14T05:13:00;11.10;99.90
9305;DHT22;4690;52.422;13.486;2023-03-14T05:15:26;11.10;99.90
9305;DHT22;4690;52.422;13.486;2023-03-14T05:17:52;11.10;99.90
9305;DHT22;4690;52.422;13.486;2023-03-14T05:20:19;11.10;99.90
9305;DHT22;4690;52.422;13.486;2023-03-14T05:22:45;11.10;99.90
9305;DHT22;4690;52.422;13.486;2023-03-14T05:25:12;11.00;99.90
9305;DHT22;4690;52.422;13.486;2023-03-14T05:27:37;11.00;99.90
9305;DHT22;4690;52.422;13.486;2023-03-14T05:30:05;11.00;99.90
9305;DHT22;4690;52.422;13.486;2023-03-14T05:32:31;10.90;99.90
9305;DHT22;4690;52.422;13.486;2023-03-14T05:34:57;10.90;99.90
9305;DHT22;4690;52.422;13.486;2023-03-14T05:37:27;10.90;99.90
9305;DHT22;4690;52.422;13.486;2023-03-14T05:39:53;11.00;99.90
9305;DHT22;4690;52.422;13.486;2023-03-14T05:42:19;10.90;99.90
9305;DHT22;4690;52.422;13.486;2023-03-14T05:44:45;10.90;99.90
9305;DHT22;4690;52.422;13.486;2023-03-14T05:47:11;11.00;99.90
9305;DHT22;4690;52.422;13.486;2023-03-14T05:49:37;11.00;99.90
9305;DHT22;4690;52.422;13.486;2023-03-14T05:52:03;11.00;99.90
9305;DHT22;4690;52.422;13.486;2023-03-14T05:54:29;11.00;99.90
9305;DHT22;4690;52.422;13.486;2023-03-14T05:56:54;11.10;99.90
9305;DHT22;4690;52.422;13.486;2023-03-14T05:59:20;11.10;99.90
9305;DHT22;4690;52.422;13.486;2023-03-14T06:01:46;11.10;99.90
9305;DHT22;4690;52.422;13.486;2023-03-14T06:04:11;11.10;99.90
9305;DHT22;4690;52.422;13.486;2023-03-14T06:06:38;11.10;99.90
9305;DHT22;4690;52.422;13.486;2023-03-14T06:09:04;11.10;99.90
9305;DHT22;4690;52.422;13.486;2023-03-14T06:11:30;11.10;99.90
9305;DHT22;4690;52.422;13.486;2023-03-14T06:13:55;11.20;99.90
9305;DHT22;4690;52.422;13.486;2023-03-14T06:16:21;11.20;99.90
9305;DHT22;4690;52.422;13.486;2023-03-14T06:18:47;11.10;99.90
9305;DHT22;4690;52.422;13.486;2023-03-14T06:21:14;11.20;99.90
9305;DHT22;4690;52.422;13.486;2023-03-14T06:23:40;11.20;99.90
9305;DHT22;4690;52.422;13.486;2023-03-14T06:26:06;11.30;99.90
9305;DHT22;4690;52.422;13.486;2023-03-14T06:28:32;11.30;99.90
9305;DHT22;4690;52.422;13.486;2023-03-14T06:30:59;11.30;99.90
9305;DHT22;4690;52.422;13.486;2023-03-14T06:33:25;11.40;99.90
9305;DHT22;4690;52.422;13.486;2023-03-14T06:35:51;11.40;99.90
9305;DHT22;4690;52.422;13.486;2023-03-14T06:38:17;11.40;99.90
9305;DHT22;4690;52.422;13.486;2023-03-14T06:40:43;11.40;99.90
9305;DHT22;4690;52.422;13.486;2023-03-14T06:43:08;11.40;99.90
9305;DHT22;4690;52.422;13.486;2023-03-14T06:45:34;11.50;99.90
9305;DHT22;4690;52.422;13.486;2023-03-14T06:48:00;11.60;99.90
9305;DHT22;4690;52.422;13.486;2023-03-14T06:50:26;11.60;99.90
9305;DHT22;4690;52.422;13.486;2023-03-14T06:52:51;11.60;99.90
9305;DHT22;4690;52.422;13.486;2023-03-14T06:55:17;11.60;99.90
9305;DHT22;4690;52.422;13.486;2023-03-14T06:57:43;11.60;99.90
9305;DHT22;4690;52.422;13.486;2023-03-14T07:00:10;11.60;99.90
9305;DHT22;4690;52.422;13.486;2023-03-14T07:02:37;11.70;99.90
9305;DHT22;4690;52.422;13.486;2023-03-14T07:05:04;11.70;99.90
9305;DHT22;4690;52.422;13.486;2023-03-14T07:07:30;11.80;99.90
9305;DHT22;4690;52.422;13.486;2023-03-14T07:09:56;11.90;99.90
9305;DHT22;4690;52.422;13.486;2023-03-14T07:12:21;12.00;99.90
9305;DHT22;4690;52.422;13.486;2023-03-14T07:14:47;11.90;99.90
9305;DHT22;4690;52.422;13.486;2023-03-14T07:17:13;11.90;99.90
9305;DHT22;4690;52.422;13.486;2023-03-14T07:19:38;11.90;99.90
9305;DHT22;4690;52.422;13.486;2023-03-14T07:22:05;11.90;99.90
9305;DHT22;4690;52.422;13.486;2023-03-14T07:24:31;11.90;99.90
9305;DHT22;4690;52.422;13.486;2023-03-14T07:26:57;11.80;99.90
9305;DHT22;4690;52.422;13.486;2023-03-14T07:29:22;11.90;99.90
9305;DHT22;4690;52.422;13.486;2023-03-14T07:31:48;11.90;99.90
9305;DHT22;4690;52.422;13.486;2023-03-14T07:34:14;12.00;99.90
9305;DHT22;4690;52.422;13.486;2023-03-14T07:36:40;12.00;99.90
9305;DHT22;4690;52.422;13.486;2023-03-14T07:39:06;12.10;99.90
9305;DHT22;4690;52.422;13.486;2023-03-14T07:41:32;12.10;99.90
9305;DHT22;4690;52.422;13.486;2023-03-14T07:43:59;12.10;99.90
9305;DHT22;4690;52.422;13.486;2023-03-14T07:46:24;12.10;99.90
9305;DHT22;4690;52.422;13.486;2023-03-14T07:48:50;12.10;99.90
9305;DHT22;4690;52.422;13.486;2023-03-14T07:51:16;12.00;99.90
9305;DHT22;4690;52.422;13.486;2023-03-14T07:53:42;12.00;99.90
9305;DHT22;4690;52.422;13.486;2023-03-14T07:56:09;12.10;99.90
9305;DHT22;4690;52.422;13.486;2023-03-14T07:58:35;12.10;99.90
9305;DHT22;4690;52.422;13.486;2023-03-14T08:01:00;12.10;99.90
9305;DHT22;4690;52.422;13.486;2023-03-14T08:03:26;12.20;99.90
9305;DHT22;4690;52.422;13.486;2023-03-14T08:05:52;12.30;99.90
9305;DHT22;4690;52.422;13.486;2023-03-14T08:08:18;12.60;99.90
9305;DHT22;4690;52.422;13.486;2023-03-14T08:10:45;13.00;99.90
9305;DHT22;4690;52.422;13.486;2023-03-14T08:13:12;12.90;99.90
9305;DHT22;4690;52.422;13.486;2023-03-14T08:15:38;12.70;99.90
9305;DHT22;4690;52.422;13.486;2023-03-14T08:18:04;12.60;99.90
9305;DHT22;4690;52.422;13.486;2023-03-14T08:20:31;12.70;99.90
9305;DHT22;4690;52.422;13.486;2023-03-14T08:22:58;12.70;99.90
9305;DHT22;4690;52.422;13.486;2023-03-14T08:25:26;12.70;99.90
9305;DHT22;4690;52.422;13.486;2023-03-14T08:27:53;12.80;99.90
9305;DHT22;4690;52.422;13.486;2023-03-14T08:30:20;12.90;99.90
9305;DHT22;4690;52.422;13.486;2023-03-14T08:32:47;12.80;99.90
9305;DHT22;4690;52.422;13.486;2023-03-14T08:35:13;12.70;99.90
9305;DHT22;4690;52.422;13.486;2023-03-14T08:37:40;12.60;99.90
9305;DHT22;4690;52.422;13.486;2023-03-14T08:40:07;12.60;99.90
9305;DHT22;4690;52.422;13.486;2023-03-14T08:42:39;12.60;99.90
9305;DHT22;4690;52.422;13.486;2023-03-14T08:45:07;12.50;99.90
9305;DHT22;4690;52.422;13.486;2023-03-14T08:47:34;12.50;99.90
9305;DHT22;4690;52.422;13.486;2023-03-14T08:50:00;12.50;99.90
9305;DHT22;4690;52.422;13.486;2023-03-14T08:52:25;12.50;99.90
9305;DHT22;4690;52.422;13.486;2023-03-14T08:54:51;12.70;99.90
9305;DHT22;4690;52.422;13.486;2023-03-14T08:57:17;12.80;99.90
9305;DHT22;4690;52.422;13.486;2023-03-14T08:59:43;12.90;99.90
9305;DHT22;4690;52.422;13.486;2023-03-14T09:02:11;12.80;99.90
9305;DHT22;4690;52.422;13.486;2023-03-14T09:04:37;12.70;99.90
9305;DHT22;4690;52.422;13.486;2023-03-14T09:07:02;12.60;99.90
9305;DHT22;4690;52.422;13.486;2023-03-14T09:09:28;12.60;99.90
9305;DHT22;4690;52.422;13.486;2023-03-14T09:11:55;12.60;99.90
9305;DHT22;4690;52.422;13.486;2023-03-14T09:14:22;12.60;99.90
9305;DHT22;4690;52.422;13.486;2023-03-14T09:16:48;12.80;99.90
9305;DHT22;4690;52.422;13.486;2023-03-14T09:19:14;13.00;99.90
9305;DHT22;4690;52.422;13.486;2023-03-14T09:21:40;13.30;99.90
9305;DHT22;4690;52.422;13.486;2023-03-14T09:24:06;13.90;99.90
9305;DHT22;4690;52.422;13.486;2023-03-14T09:26:33;14.40;99.90
9305;DHT22;4690;52.422;13.486;2023-03-14T09:28:59;14.20;99.90
9305;DHT22;4690;52.422;13.486;2023-03-14T09:31:25;14.50;99.90
9305;DHT22;4690;52.422;13.486;2023-03-14T09:33:51;14.80;99.90
9305;DHT22;4690;52.422;13.486;2023-03-14T09:36:16;14.60;99.90
9305;DHT22;4690;52.422;13.486;2023-03-14T09:38:42;14.80;99.90
9305;DHT22;4690;52.422;13.486;2023-03-14T09:41:29;14.90;99.90
9305;DHT22;4690;52.422;13.486;2023-03-14T09:46:44;14.80;99.90
9305;DHT22;4690;52.422;13.486;2023-03-14T09:52:29;15.20;99.90
9305;DHT22;4690;52.422;13.486;2023-03-14T09:55:00;15.10;99.90
9305;DHT22;4690;52.422;13.486;2023-03-14T09:57:29;15.00;99.90
9305;DHT22;4690;52.422;13.486;2023-03-14T10:00:03;14.90;99.90
9305;DHT22;4690;52.422;13.486;2023-03-14T10:02:40;14.60;99.90
9305;DHT22;4690;52.422;13.486;2023-03-14T10:05:16;14.50;99.90
9305;DHT22;4690;52.422;13.486;2023-03-14T10:07:44;14.30;99.90
9305;DHT22;4690;52.422;13.486;2023-03-14T10:12:46;14.10;99.90
9305;DHT22;4690;52.422;13.486;2023-03-14T10:15:15;14.00;99.90
9305;DHT22;4690;52.422;13.486;2023-03-14T10:17:51;14.00;99.90
9305;DHT22;4690;52.422;13.486;2023-03-14T10:20:35;13.80;99.90
9305;DHT22;4690;52.422;13.486;2023-03-14T10:26:15;13.70;99.90
9305;DHT22;4690;52.422;13.486;2023-03-14T10:28:53;13.70;99.90
9305;DHT22;4690;52.422;13.486;2023-03-14T10:31:27;13.70;99.90
9305;DHT22;4690;52.422;13.486;2023-03-14T10:34:04;13.70;99.90
9305;DHT22;4690;52.422;13.486;2023-03-14T10:36:32;13.70;99.90
9305;DHT22;4690;52.422;13.486;2023-03-14T10:44:42;13.60;99.90
9305;DHT22;4690;52.422;13.486;2023-03-14T10:47:18;13.60;99.90
9305;DHT22;4690;52.422;13.486;2023-03-14T10:49:45;13.60;99.90
9305;DHT22;4690;52.422;13.486;2023-03-14T10:52:27;13.60;99.90
9305;DHT22;4690;52.422;13.486;2023-03-14T10:55:00;13.60;99.90
9305;DHT22;4690;52.422;13.486;2023-03-14T10:57:28;13.60;99.90
9305;DHT22;4690;52.422;13.486;2023-03-14T10:59:56;13.50;99.90
9305;DHT22;4690;52.422;13.486;2023-03-14T11:06:03;13.50;99.90
9305;DHT22;4690;52.422;13.486;2023-03-14T11:08:53;13.50;99.90
9305;DHT22;4690;52.422;13.486;2023-03-14T11:11:31;13.50;99.90
9305;DHT22;4690;52.422;13.486;2023-03-14T11:17:38;13.60;99.90
9305;DHT22;4690;52.422;13.486;2023-03-14T11:20:42;13.50;99.90
9305;DHT22;4690;52.422;13.486;2023-03-14T11:23:46;13.50;99.90
9305;DHT22;4690;52.422;13.486;2023-03-14T11:26:45;13.50;99.90
9305;DHT22;4690;52.422;13.486;2023-03-14T11:29:30;13.50;99.90
9305;DHT22;4690;52.422;13.486;2023-03-14T11:32:14;13.50;99.90
9305;DHT22;4690;52.422;13.486;2023-03-14T11:34:52;13.60;99.90
9305;DHT22;4690;52.422;13.486;2023-03-14T11:37:28;13.60;99.90
9305;DHT22;4690;52.422;13.486;2023-03-14T11:40:22;13.50;99.90
9305;DHT22;4690;52.422;13.486;2023-03-14T11:49:16;13.50;99.90
9305;DHT22;4690;52.422;13.486;2023-03-14T11:51:56;13.50;99.90
9305;DHT22;4690;52.422;13.486;2023-03-14T11:57:19;13.40;99.90
9305;DHT22;4690;52.422;13.486;2023-03-14T12:02:35;12.80;99.90
9305;DHT22;4690;52.422;13.486;2023-03-14T12:11:18;12.30;99.90
9305;DHT22;4690;52.422;13.486;2023-03-14T12:14:00;12.00;99.90
9305;DHT22;4690;52.422;13.486;2023-03-14T12:16:36;11.70;99.90
9305;DHT22;4690;52.422;13.486;2023-03-14T12:22:01;11.40;99.90
9305;DHT22;4690;52.422;13.486;2023-03-14T12:24:36;11.40;99.90
9305;DHT22;4690;52.422;13.486;2023-03-14T12:27:05;11.50;99.90
9305;DHT22;4690;52.422;13.486;2023-03-14T12:29:57;11.50;99.90
9305;DHT22;4690;52.422;13.486;2023-03-14T12:32:25;11.70;99.90
9305;DHT22;4690;52.422;13.486;2023-03-14T12:34:51;11.80;99.90
9305;DHT22;4690;52.422;13.486;2023-03-14T12:37:28;12.00;99.90
9305;DHT22;4690;52.422;13.486;2023-03-14T12:40:15;12.50;99.90
9305;DHT22;4690;52.422;13.486;2023-03-14T12:43:00;12.80;99.90
9305;DHT22;4690;52.422;13.486;2023-03-14T12:45:35;13.10;99.90
9305;DHT22;4690;52.422;13.486;2023-03-14T12:48:08;13.40;99.90
9305;DHT22;4690;52.422;13.486;2023-03-14T12:50:46;13.50;99.90
9305;DHT22;4690;52.422;13.486;2023-03-14T12:53:56;13.50;99.90
9305;DHT22;4690;52.422;13.486;2023-03-14T12:59:56;13.70;99.90
9305;DHT22;4690;52.422;13.486;2023-03-14T13:02:38;13.80;99.90
9305;DHT22;4690;52.422;13.486;2023-03-14T13:13:19;13.70;99.90
9305;DHT22;4690;52.422;13.486;2023-03-14T13:15:49;13.60;99.90
9305;DHT22;4690;52.422;13.486;2023-03-14T13:18:37;13.70;99.90
9305;DHT22;4690;52.422;13.486;2023-03-14T13:21:14;13.80;99.90
9305;DHT22;4690;52.422;13.486;2023-03-14T13:23:55;13.80;99.90
9305;DHT22;4690;52.422;13.486;2023-03-14T13:26:39;13.80;99.90
9305;DHT22;4690;52.422;13.486;2023-03-14T13:29:20;13.90;99.90
9305;DHT22;4690;52.422;13.486;2023-03-14T13:34:47;14.10;99.90
9305;DHT22;4690;52.422;13.486;2023-03-14T13:37:20;14.40;99.90
9305;DHT22;4690;52.422;13.486;2023-03-14T13:39:56;14.50;99.90
9305;DHT22;4690;52.422;13.486;2023-03-14T13:42:27;14.70;99.90
9305;DHT22;4690;52.422;13.486;2023-03-14T13:44:56;14.80;99.90
9305;DHT22;4690;52.422;13.486;2023-03-14T13:47:24;14.70;99.90
9305;DHT22;4690;52.422;13.486;2023-03-14T13:49:51;14.70;99.90
9305;DHT22;4690;52.422;13.486;2023-03-14T13:52:37;14.20;99.90
9305;DHT22;4690;52.422;13.486;2023-03-14T13:55:05;14.00;99.90
9305;DHT22;4690;52.422;13.486;2023-03-14T13:57:54;13.90;99.90
9305;DHT22;4690;52.422;13.486;2023-03-14T14:00:25;13.80;99.90
9305;DHT22;4690;52.422;13.486;2023-03-14T14:02:57;13.60;99.90
9305;DHT22;4690;52.422;13.486;2023-03-14T14:05:28;13.60;99.90
9305;DHT22;4690;52.422;13.486;2023-03-14T14:07:56;13.60;99.90
9305;DHT22;4690;52.422;13.486;2023-03-14T14:10:23;13.90;99.90
9305;DHT22;4690;52.422;13.486;2023-03-14T14:13:13;13.90;99.90
9305;DHT22;4690;52.422;13.486;2023-03-14T14:15:46;13.90;99.90
9305;DHT22;4690;52.422;13.486;2023-03-14T14:18:18;13.90;99.90
9305;DHT22;4690;52.422;13.486;2023-03-14T14:20:49;13.90;99.90
9305;DHT22;4690;52.422;13.486;2023-03-14T14:23:19;14.00;99.90
9305;DHT22;4690;52.422;13.486;2023-03-14T14:25:54;14.00;99.90
9305;DHT22;4690;52.422;13.486;2023-03-14T14:28:27;14.10;99.90
9305;DHT22;4690;52.422;13.486;2023-03-14T14:31:16;14.20;99.90
9305;DHT22;4690;52.422;13.486;2023-03-14T14:33:54;14.10;99.90
9305;DHT22;4690;52.422;13.486;2023-03-14T14:36:31;14.10;99.90
9305;DHT22;4690;52.422;13.486;2023-03-14T14:39:15;14.30;99.90
9305;DHT22;4690;52.422;13.486;2023-03-14T14:41:48;14.10;99.90
9305;DHT22;4690;52.422;13.486;2023-03-14T14:44:18;13.90;99.90
9305;DHT22;4690;52.422;13.486;2023-03-14T14:46:58;14.00;99.90
9305;DHT22;4690;52.422;13.486;2023-03-14T14:49:29;13.80;99.90
9305;DHT22;4690;52.422;13.486;2023-03-14T14:52:03;13.80;99.90
9305;DHT22;4690;52.422;13.486;2023-03-14T14:54:48;13.80;99.90
9305;DHT22;4690;52.422;13.486;2023-03-14T14:57:25;13.60;99.90
9305;DHT22;4690;52.422;13.486;2023-03-14T15:00:16;13.60;99.90
9305;DHT22;4690;52.422;13.486;2023-03-14T15:02:47;13.60;99.90
9305;DHT22;4690;52.422;13.486;2023-03-14T15:05:15;13.50;99.90
9305;DHT22;4690;52.422;13.486;2023-03-14T15:07:42;13.40;99.90
9305;DHT22;4690;52.422;13.486;2023-03-14T15:10:17;13.50;99.90
9305;DHT22;4690;52.422;13.486;2023-03-14T15:12:45;13.50;99.90
9305;DHT22;4690;52.422;13.486;2023-03-14T15:15:12;13.50;99.90
9305;DHT22;4690;52.422;13.486;2023-03-14T15:17:39;13.50;99.90
9305;DHT22;4690;52.422;13.486;2023-03-14T15:20:11;13.40;99.90
9305;DHT22;4690;52.422;13.486;2023-03-14T15:22:40;13.40;99.90
9305;DHT22;4690;52.422;13.486;2023-03-14T15:25:07;13.40;99.90
9305;DHT22;4690;52.422;13.486;2023-03-14T15:27:34;13.20;99.90
9305;DHT22;4690;52.422;13.486;2023-03-14T15:30:00;13.10;99.90
9305;DHT22;4690;52.422;13.486;2023-03-14T15:32:26;13.00;99.90
9305;DHT22;4690;52.422;13.486;2023-03-14T15:34:56;11.90;99.90
9305;DHT22;4690;52.422;13.486;2023-03-14T15:37:22;10.60;99.90
9305;DHT22;4690;52.422;13.486;2023-03-14T15:39:48;9.90;99.90
9305;DHT22;4690;52.422;13.486;2023-03-14T15:42:14;9.40;99.90
9305;DHT22;4690;52.422;13.486;2023-03-14T15:44:40;8.70;99.90
9305;DHT22;4690;52.422;13.486;2023-03-14T15:47:06;8.10;99.90
9305;DHT22;4690;52.422;13.486;2023-03-14T15:49:33;7.60;99.90
9305;DHT22;4690;52.422;13.486;2023-03-14T15:51:59;7.40;99.90
9305;DHT22;4690;52.422;13.486;2023-03-14T15:54:25;7.10;99.90
9305;DHT22;4690;52.422;13.486;2023-03-14T15:56:57;7.00;99.90
9305;DHT22;4690;52.422;13.486;2023-03-14T15:59:23;6.70;99.90
9305;DHT22;4690;52.422;13.486;2023-03-14T16:01:49;6.50;99.90
9305;DHT22;4690;52.422;13.486;2023-03-14T16:04:16;6.40;99.90
9305;DHT22;4690;52.422;13.486;2023-03-14T16:06:42;6.10;99.90
9305;DHT22;4690;52.422;13.486;2023-03-14T16:09:10;6.10;99.90
9305;DHT22;4690;52.422;13.486;2023-03-14T16:11:39;5.80;99.90
9305;DHT22;4690;52.422;13.486;2023-03-14T16:14:05;5.80;99.90
9305;DHT22;4690;52.422;13.486;2023-03-14T16:16:31;5.80;99.90
9305;DHT22;4690;52.422;13.486;2023-03-14T16:18:57;5.50;99.90
9305;DHT22;4690;52.422;13.486;2023-03-14T16:21:23;5.00;99.90
9305;DHT22;4690;52.422;13.486;2023-03-14T16:23:49;4.50;99.90
9305;DHT22;4690;52.422;13.486;2023-03-14T16:26:17;4.30;99.90
9305;DHT22;4690;52.422;13.486;2023-03-14T16:28:45;4.10;99.90
9305;DHT22;4690;52.422;13.486;2023-03-14T16:31:17;4.10;99.90
9305;DHT22;4690;52.422;13.486;2023-03-14T16:33:46;4.10;99.90
9305;DHT22;4690;52.422;13.486;2023-03-14T16:36:12;4.00;99.90
9305;DHT22;4690;52.422;13.486;2023-03-14T16:38:40;3.90;99.90
9305;DHT22;4690;52.422;13.486;2023-03-14T16:41:12;3.60;99.90
9305;DHT22;4690;52.422;13.486;2023-03-14T16:43:41;3.50;99.90
9305;DHT22;4690;52.422;13.486;2023-03-14T16:46:11;3.40;99.90
9305;DHT22;4690;52.422;13.486;2023-03-14T16:48:40;3.20;99.90
9305;DHT22;4690;52.422;13.486;2023-03-14T16:51:06;3.00;99.90
9305;DHT22;4690;52.422;13.486;2023-03-14T16:53:32;3.00;99.90
9305;DHT22;4690;52.422;13.486;2023-03-14T16:55:58;2.90;99.90
9305;DHT22;4690;52.422;13.486;2023-03-14T16:58:25;2.80;99.90
9305;DHT22;4690;52.422;13.486;2023-03-14T17:00:51;2.80;99.90
9305;DHT22;4690;52.422;13.486;2023-03-14T17:03:17;2.80;99.90
9305;DHT22;4690;52.422;13.486;2023-03-14T17:05:48;2.90;99.90
9305;DHT22;4690;52.422;13.486;2023-03-14T17:08:16;2.80;99.90
9305;DHT22;4690;52.422;13.486;2023-03-14T17:10:43;2.90;99.90
9305;DHT22;4690;52.422;13.486;2023-03-14T17:13:09;3.00;99.90
9305;DHT22;4690;52.422;13.486;2023-03-14T17:15:36;3.00;99.90